sensor_id;sensor_type;location;lat;lon;timestamp;pressure;altitude;pressure_sealevel;temperature;humidity
52949;BME280;38812;50.942;3.644;2023-04-03T00:00:08;102905.28;;;-1.08;100.00
52949;BME280;38812;50.942;3.644;2023-04-03T00:02:35;102906.34;;;-1.05;100.00
52949;BME280;38812;50.942;3.644;2023-04-03T00:05:00;102909.13;;;-1.01;100.00
52949;BME280;38812;50.942;3.644;2023-04-03T00:07:26;102915.44;;;-0.96;100.00
52949;BME280;38812;50.942;3.644;2023-04-03T00:09:51;102909.22;;;-0.85;100.00
52949;BME280;38812;50.942;3.644;2023-04-03T00:12:17;102908.75;;;-1.08;100.00
52949;BME280;38812;50.942;3.644;2023-04-03T00:14:42;102907.00;;;-1.09;100.00
52949;BME280;38812;50.942;3.644;2023-04-03T00:17:07;102911.09;;;-1.12;100.00
52949;BME280;38812;50.942;3.644;2023-04-03T00:19:33;102913.19;;;-1.20;100.00
52949;BME280;38812;50.942;3.644;2023-04-03T00:21:58;102913.56;;;-1.14;100.00
52949;BME280;38812;50.942;3.644;2023-04-03T00:24:24;102910.06;;;-1.29;100.00
52949;BME280;38812;50.942;3.644;2023-04-03T00:26:50;102921.81;;;-1.34;100.00
52949;BME280;38812;50.942;3.644;2023-04-03T00:29:15;102913.88;;;-1.37;100.00
52949;BME280;38812;50.942;3.644;2023-04-03T00:31:40;102916.19;;;-1.27;100.00
52949;BME280;38812;50.942;3.644;2023-04-03T00:34:06;102911.97;;;-1.12;100.00
52949;BME280;38812;50.942;3.644;2023-04-03T00:36:31;102915.53;;;-0.95;100.00
52949;BME280;38812;50.942;3.644;2023-04-03T00:38:56;102915.09;;;-1.02;100.00
52949;BME280;38812;50.942;3.644;2023-04-03T00:41:22;102913.84;;;-1.09;100.00
52949;BME280;38812;50.942;3.644;2023-04-03T00:43:47;102908.03;;;-1.20;100.00
52949;BME280;38812;50.942;3.644;2023-04-03T00:46:13;102905.19;;;-1.24;100.00
52949;BME280;38812;50.942;3.644;2023-04-03T00:48:41;102919.59;;;-1.28;100.00
52949;BME280;38812;50.942;3.644;2023-04-03T00:51:11;102921.13;;;-1.31;100.00
52949;BME280;38812;50.942;3.644;2023-04-03T00:53:50;102921.44;;;-1.40;100.00
52949;BME280;38812;50.942;3.644;2023-04-03T00:56:18;102925.94;;;-1.51;100.00
52949;BME280;38812;50.942;3.644;2023-04-03T00:58:52;102932.88;;;-1.50;100.00
52949;BME280;38812;50.942;3.644;2023-04-03T01:01:22;102933.75;;;-1.49;100.00
52949;BME280;38812;50.942;3.644;2023-04-03T01:03:48;102933.22;;;-1.58;100.00
52949;BME280;38812;50.942;3.644;2023-04-03T01:06:16;102936.97;;;-1.53;100.00
52949;BME280;38812;50.942;3.644;2023-04-03T01:08:42;102935.53;;;-1.48;100.00
52949;BME280;38812;50.942;3.644;2023-04-03T01:11:07;102922.72;;;-1.61;100.00
52949;BME280;38812;50.942;3.644;2023-04-03T01:13:33;102923.88;;;-1.56;100.00
52949;BME280;38812;50.942;3.644;2023-04-03T01:16:03;102925.09;;;-1.36;100.00
52949;BME280;38812;50.942;3.644;2023-04-03T01:18:30;102924.78;;;-1.13;100.00
52949;BME280;38812;50.942;3.644;2023-04-03T01:21:37;102928.88;;;-1.02;100.00
52949;BME280;38812;50.942;3.644;2023-04-03T01:26:31;102916.44;;;-0.94;100.00
52949;BME280;38812;50.942;3.644;2023-04-03T01:28:59;102929.25;;;-0.96;100.00
52949;BME280;38812;50.942;3.644;2023-04-03T01:33:51;102935.63;;;-1.04;100.00
52949;BME280;38812;50.942;3.644;2023-04-03T01:36:20;102926.28;;;-1.17;100.00
52949;BME280;38812;50.942;3.644;2023-04-03T01:38:47;102928.69;;;-1.20;100.00
52949;BME280;38812;50.942;3.644;2023-04-03T01:41:13;102922.94;;;-1.29;100.00
52949;BME280;38812;50.942;3.644;2023-04-03T01:43:38;102923.16;;;-1.26;100.00
52949;BME280;38812;50.942;3.644;2023-04-03T01:46:04;102927.09;;;-1.18;100.00
52949;BME280;38812;50.942;3.644;2023-04-03T01:48:29;102921.59;;;-1.09;100.00
52949;BME280;38812;50.942;3.644;2023-04-03T01:50:54;102924.19;;;-0.94;100.00
52949;BME280;38812;50.942;3.644;2023-04-03T01:53:20;102927.66;;;-0.94;100.00
52949;BME280;38812;50.942;3.644;2023-04-03T01:55:45;102936.78;;;-0.84;100.00
52949;BME280;38812;50.942;3.644;2023-04-03T01:58:11;102930.59;;;-0.88;100.00
52949;BME280;38812;50.942;3.644;2023-04-03T02:00:36;102938.66;;;-0.82;100.00
52949;BME280;38812;50.942;3.644;2023-04-03T02:03:02;102930.59;;;-0.73;100.00
52949;BME280;38812;50.942;3.644;2023-04-03T02:05:28;102939.94;;;-0.75;100.00
52949;BME280;38812;50.942;3.644;2023-04-03T02:07:53;102929.25;;;-0.81;100.00
52949;BME280;38812;50.942;3.644;2023-04-03T02:10:18;102925.44;;;-0.88;100.00
52949;BME280;38812;50.942;3.644;2023-04-03T02:12:44;102935.75;;;-0.88;100.00
52949;BME280;38812;50.942;3.644;2023-04-03T02:15:10;102937.06;;;-0.94;100.00
52949;BME280;38812;50.942;3.644;2023-04-03T02:17:35;102946.84;;;-1.04;100.00
52949;BME280;38812;50.942;3.644;2023-04-03T02:20:02;102945.53;;;-0.97;100.00
52949;BME280;38812;50.942;3.644;2023-04-03T02:22:28;102943.56;;;-1.01;100.00
52949;BME280;38812;50.942;3.644;2023-04-03T02:24:53;102947.22;;;-0.97;100.00
52949;BME280;38812;50.942;3.644;2023-04-03T02:27:19;102937.78;;;-1.12;100.00
52949;BME280;38812;50.942;3.644;2023-04-03T02:29:44;102949.88;;;-1.11;100.00
52949;BME280;38812;50.942;3.644;2023-04-03T02:32:09;102931.53;;;-1.30;100.00
52949;BME280;38812;50.942;3.644;2023-04-03T02:34:35;102938.47;;;-1.14;100.00
52949;BME280;38812;50.942;3.644;2023-04-03T02:37:00;102943.56;;;-0.86;100.00
52949;BME280;38812;50.942;3.644;2023-04-03T02:39:26;102952.38;;;-0.83;100.00
52949;BME280;38812;50.942;3.644;2023-04-03T02:41:52;102949.88;;;-0.96;100.00
52949;BME280;38812;50.942;3.644;2023-04-03T02:44:17;102947.38;;;-1.09;100.00
52949;BME280;38812;50.942;3.644;2023-04-03T02:46:44;102932.56;;;-1.26;100.00
52949;BME280;38812;50.942;3.644;2023-04-03T02:49:09;102936.22;;;-1.23;100.00
52949;BME280;38812;50.942;3.644;2023-04-03T02:51:34;102953.56;;;-1.20;100.00
52949;BME280;38812;50.942;3.644;2023-04-03T02:54:00;102959.72;;;-1.18;100.00
52949;BME280;38812;50.942;3.644;2023-04-03T02:56:25;102941.84;;;-1.30;100.00
52949;BME280;38812;50.942;3.644;2023-04-03T02:58:52;102951.16;;;-1.32;100.00
52949;BME280;38812;50.942;3.644;2023-04-03T03:01:18;102954.19;;;-1.24;100.00
52949;BME280;38812;50.942;3.644;2023-04-03T03:03:43;102959.25;;;-1.26;100.00
52949;BME280;38812;50.942;3.644;2023-04-03T03:06:11;102954.66;;;-1.17;100.00
52949;BME280;38812;50.942;3.644;2023-04-03T03:08:37;102957.41;;;-1.14;100.00
52949;BME280;38812;50.942;3.644;2023-04-03T03:11:03;102954.84;;;-1.14;100.00
52949;BME280;38812;50.942;3.644;2023-04-03T03:13:28;102952.69;;;-1.21;100.00
52949;BME280;38812;50.942;3.644;2023-04-03T03:15:54;102962.31;;;-1.18;100.00
52949;BME280;38812;50.942;3.644;2023-04-03T03:18:20;102968.75;;;-1.25;100.00
52949;BME280;38812;50.942;3.644;2023-04-03T03:20:45;102961.22;;;-1.22;100.00
52949;BME280;38812;50.942;3.644;2023-04-03T03:23:11;102950.38;;;-1.31;100.00
52949;BME280;38812;50.942;3.644;2023-04-03T03:25:40;102972.94;;;-1.27;100.00
52949;BME280;38812;50.942;3.644;2023-04-03T03:28:06;102968.16;;;-1.21;100.00
52949;BME280;38812;50.942;3.644;2023-04-03T03:30:31;102972.81;;;-1.15;100.00
52949;BME280;38812;50.942;3.644;2023-04-03T03:32:57;102961.59;;;-1.16;100.00
52949;BME280;38812;50.942;3.644;2023-04-03T03:35:22;102956.34;;;-1.17;100.00
52949;BME280;38812;50.942;3.644;2023-04-03T03:37:48;102970.13;;;-1.17;100.00
52949;BME280;38812;50.942;3.644;2023-04-03T03:40:13;102962.41;;;-1.17;100.00
52949;BME280;38812;50.942;3.644;2023-04-03T03:42:39;102966.75;;;-1.16;100.00
52949;BME280;38812;50.942;3.644;2023-04-03T03:45:05;102968.34;;;-1.18;100.00
52949;BME280;38812;50.942;3.644;2023-04-03T03:47:31;102970.41;;;-1.12;100.00
52949;BME280;38812;50.942;3.644;2023-04-03T03:49:56;102967.47;;;-1.04;100.00
52949;BME280;38812;50.942;3.644;2023-04-03T03:52:22;102959.31;;;-0.96;100.00
52949;BME280;38812;50.942;3.644;2023-04-03T03:54:47;102973.19;;;-0.94;100.00
52949;BME280;38812;50.942;3.644;2023-04-03T03:57:12;102982.44;;;-0.83;100.00
52949;BME280;38812;50.942;3.644;2023-04-03T03:59:38;102975.34;;;-0.87;100.00
52949;BME280;38812;50.942;3.644;2023-04-03T04:02:05;102974.47;;;-0.88;100.00
52949;BME280;38812;50.942;3.644;2023-04-03T04:04:31;102969.25;;;-1.02;100.00
52949;BME280;38812;50.942;3.644;2023-04-03T04:06:56;102963.91;;;-1.20;100.00
52949;BME280;38812;50.942;3.644;2023-04-03T04:09:21;102981.44;;;-1.15;100.00
52949;BME280;38812;50.942;3.644;2023-04-03T04:11:47;102972.53;;;-1.20;100.00
52949;BME280;38812;50.942;3.644;2023-04-03T04:14:12;102986.50;;;-1.16;100.00
52949;BME280;38812;50.942;3.644;2023-04-03T04:16:38;102986.03;;;-1.24;100.00
52949;BME280;38812;50.942;3.644;2023-04-03T04:19:03;102992.69;;;-1.27;100.00
52949;BME280;38812;50.942;3.644;2023-04-03T04:21:29;102990.25;;;-1.39;100.00
52949;BME280;38812;50.942;3.644;2023-04-03T04:23:54;102996.81;;;-1.44;100.00
52949;BME280;38812;50.942;3.644;2023-04-03T04:26:20;102993.34;;;-1.45;100.00
52949;BME280;38812;50.942;3.644;2023-04-03T04:28:46;102975.72;;;-1.52;100.00
52949;BME280;38812;50.942;3.644;2023-04-03T04:31:11;102985.88;;;-1.40;100.00
52949;BME280;38812;50.942;3.644;2023-04-03T04:33:37;102991.84;;;-1.41;100.00
52949;BME280;38812;50.942;3.644;2023-04-03T04:36:02;102993.03;;;-1.36;100.00
52949;BME280;38812;50.942;3.644;2023-04-03T04:38:28;102989.88;;;-1.45;100.00
52949;BME280;38812;50.942;3.644;2023-04-03T04:40:53;103002.56;;;-1.48;100.00
52949;BME280;38812;50.942;3.644;2023-04-03T04:43:19;102986.16;;;-1.63;100.00
52949;BME280;38812;50.942;3.644;2023-04-03T04:45:44;102992.69;;;-1.68;100.00
52949;BME280;38812;50.942;3.644;2023-04-03T04:48:10;102997.16;;;-1.66;100.00
52949;BME280;38812;50.942;3.644;2023-04-03T04:50:35;102995.88;;;-1.59;100.00
52949;BME280;38812;50.942;3.644;2023-04-03T04:53:01;102992.19;;;-1.63;100.00
52949;BME280;38812;50.942;3.644;2023-04-03T04:55:26;102989.56;;;-1.78;100.00
52949;BME280;38812;50.942;3.644;2023-04-03T04:57:51;102999.06;;;-1.77;100.00
52949;BME280;38812;50.942;3.644;2023-04-03T05:00:17;102993.72;;;-1.80;100.00
52949;BME280;38812;50.942;3.644;2023-04-03T05:02:43;102992.50;;;-1.72;100.00
52949;BME280;38812;50.942;3.644;2023-04-03T05:05:08;102992.00;;;-1.66;100.00
52949;BME280;38812;50.942;3.644;2023-04-03T05:07:34;102986.34;;;-1.60;100.00
52949;BME280;38812;50.942;3.644;2023-04-03T05:10:01;102993.47;;;-1.56;100.00
52949;BME280;38812;50.942;3.644;2023-04-03T05:12:27;102992.06;;;-1.51;100.00
52949;BME280;38812;50.942;3.644;2023-04-03T05:14:53;102988.19;;;-1.45;100.00
52949;BME280;38812;50.942;3.644;2023-04-03T05:17:18;102998.88;;;-1.39;100.00
52949;BME280;38812;50.942;3.644;2023-04-03T05:19:44;102983.53;;;-1.50;100.00
52949;BME280;38812;50.942;3.644;2023-04-03T05:22:09;102978.00;;;-1.56;100.00
52949;BME280;38812;50.942;3.644;2023-04-03T05:24:35;102990.91;;;-1.56;100.00
52949;BME280;38812;50.942;3.644;2023-04-03T05:27:00;102992.69;;;-1.27;100.00
52949;BME280;38812;50.942;3.644;2023-04-03T05:29:25;102991.50;;;-1.05;100.00
52949;BME280;38812;50.942;3.644;2023-04-03T05:31:51;102987.78;;;-0.95;100.00
52949;BME280;38812;50.942;3.644;2023-04-03T05:34:16;102990.28;;;-0.96;100.00
52949;BME280;38812;50.942;3.644;2023-04-03T05:36:42;102999.97;;;-0.92;100.00
52949;BME280;38812;50.942;3.644;2023-04-03T05:39:08;102998.63;;;-1.00;100.00
52949;BME280;38812;50.942;3.644;2023-04-03T05:41:33;103002.38;;;-0.95;100.00
52949;BME280;38812;50.942;3.644;2023-04-03T05:43:59;103007.53;;;-0.95;100.00
52949;BME280;38812;50.942;3.644;2023-04-03T05:46:24;103013.59;;;-0.95;100.00
52949;BME280;38812;50.942;3.644;2023-04-03T05:48:50;103011.34;;;-1.04;100.00
52949;BME280;38812;50.942;3.644;2023-04-03T05:51:22;103014.84;;;-0.88;100.00
52949;BME280;38812;50.942;3.644;2023-04-03T05:53:49;103011.53;;;-0.86;100.00
52949;BME280;38812;50.942;3.644;2023-04-03T05:56:17;103009.63;;;-0.75;100.00
52949;BME280;38812;50.942;3.644;2023-04-03T05:58:42;103012.38;;;-0.72;100.00
52949;BME280;38812;50.942;3.644;2023-04-03T06:01:08;103022.69;;;-0.43;100.00
52949;BME280;38812;50.942;3.644;2023-04-03T06:03:33;103014.06;;;0.48;100.00
52949;BME280;38812;50.942;3.644;2023-04-03T06:05:59;103012.06;;;1.58;100.00
52949;BME280;38812;50.942;3.644;2023-04-03T06:08:24;103025.53;;;2.57;100.00
52949;BME280;38812;50.942;3.644;2023-04-03T06:10:50;103020.34;;;3.34;100.00
52949;BME280;38812;50.942;3.644;2023-04-03T06:13:16;103026.03;;;3.87;100.00
52949;BME280;38812;50.942;3.644;2023-04-03T06:15:42;103006.31;;;4.36;100.00
52949;BME280;38812;50.942;3.644;2023-04-03T06:18:07;103010.28;;;4.27;100.00
52949;BME280;38812;50.942;3.644;2023-04-03T06:20:33;102999.25;;;4.32;100.00
52949;BME280;38812;50.942;3.644;2023-04-03T06:22:58;103001.66;;;4.28;100.00
52949;BME280;38812;50.942;3.644;2023-04-03T06:25:24;103004.28;;;4.74;100.00
52949;BME280;38812;50.942;3.644;2023-04-03T06:27:50;103009.78;;;4.59;100.00
52949;BME280;38812;50.942;3.644;2023-04-03T06:30:16;103003.81;;;4.62;100.00
52949;BME280;38812;50.942;3.644;2023-04-03T06:32:41;103000.03;;;4.76;100.00
52949;BME280;38812;50.942;3.644;2023-04-03T06:35:08;103005.63;;;4.87;100.00
52949;BME280;38812;50.942;3.644;2023-04-03T06:37:34;102987.97;;;4.79;100.00
52949;BME280;38812;50.942;3.644;2023-04-03T06:39:59;102994.09;;;4.80;100.00
52949;BME280;38812;50.942;3.644;2023-04-03T06:42:25;103008.69;;;4.75;100.00
52949;BME280;38812;50.942;3.644;2023-04-03T06:44:51;103020.88;;;4.54;100.00
52949;BME280;38812;50.942;3.644;2023-04-03T06:47:16;103005.47;;;4.15;100.00
52949;BME280;38812;50.942;3.644;2023-04-03T06:49:43;103013.63;;;4.02;100.00
52949;BME280;38812;50.942;3.644;2023-04-03T06:52:09;103035.69;;;3.91;100.00
52949;BME280;38812;50.942;3.644;2023-04-03T06:54:35;103030.19;;;3.83;100.00
52949;BME280;38812;50.942;3.644;2023-04-03T06:57:01;103027.81;;;3.68;100.00
52949;BME280;38812;50.942;3.644;2023-04-03T06:59:26;103036.03;;;3.77;100.00
52949;BME280;38812;50.942;3.644;2023-04-03T07:01:52;103034.56;;;3.63;100.00
52949;BME280;38812;50.942;3.644;2023-04-03T07:04:17;103027.06;;;3.71;100.00
52949;BME280;38812;50.942;3.644;2023-04-03T07:06:45;103038.41;;;3.94;100.00
52949;BME280;38812;50.942;3.644;2023-04-03T07:09:12;103006.78;;;4.04;100.00
52949;BME280;38812;50.942;3.644;2023-04-03T07:11:38;103024.69;;;4.19;100.00
52949;BME280;38812;50.942;3.644;2023-04-03T07:14:03;103012.94;;;4.28;100.00
52949;BME280;38812;50.942;3.644;2023-04-03T07:16:28;103023.06;;;4.43;100.00
52949;BME280;38812;50.942;3.644;2023-04-03T07:18:56;103022.88;;;4.61;100.00
52949;BME280;38812;50.942;3.644;2023-04-03T07:21:22;103025.78;;;4.68;100.00
52949;BME280;38812;50.942;3.644;2023-04-03T07:23:47;103026.06;;;4.76;100.00
52949;BME280;38812;50.942;3.644;2023-04-03T07:26:13;103015.25;;;4.89;100.00
52949;BME280;38812;50.942;3.644;2023-04-03T07:28:38;103027.19;;;5.06;100.00
52949;BME280;38812;50.942;3.644;2023-04-03T07:31:08;103024.03;;;5.15;100.00
52949;BME280;38812;50.942;3.644;2023-04-03T07:33:36;103017.22;;;5.44;100.00
52949;BME280;38812;50.942;3.644;2023-04-03T07:36:02;103016.66;;;5.78;100.00
52949;BME280;38812;50.942;3.644;2023-04-03T07:38:28;103024.41;;;5.76;100.00
52949;BME280;38812;50.942;3.644;2023-04-03T07:40:54;103034.03;;;5.77;100.00
52949;BME280;38812;50.942;3.644;2023-04-03T07:43:20;103027.88;;;6.28;100.00
52949;BME280;38812;50.942;3.644;2023-04-03T07:45:46;103034.34;;;6.40;100.00
52949;BME280;38812;50.942;3.644;2023-04-03T07:48:15;103036.56;;;6.57;100.00
52949;BME280;38812;50.942;3.644;2023-04-03T07:50:41;103042.94;;;6.65;100.00
52949;BME280;38812;50.942;3.644;2023-04-03T07:53:06;103041.59;;;6.50;100.00
52949;BME280;38812;50.942;3.644;2023-04-03T07:55:33;103047.22;;;6.63;100.00
52949;BME280;38812;50.942;3.644;2023-04-03T07:57:58;103040.03;;;7.15;100.00
52949;BME280;38812;50.942;3.644;2023-04-03T08:00:23;103044.47;;;7.49;100.00
52949;BME280;38812;50.942;3.644;2023-04-03T08:02:50;103047.25;;;7.55;100.00
52949;BME280;38812;50.942;3.644;2023-04-03T08:05:20;103034.94;;;7.51;100.00
52949;BME280;38812;50.942;3.644;2023-04-03T08:07:46;103037.25;;;8.10;100.00
52949;BME280;38812;50.942;3.644;2023-04-03T08:10:12;103041.50;;;7.70;100.00
52949;BME280;38812;50.942;3.644;2023-04-03T08:12:37;103039.25;;;7.84;100.00
52949;BME280;38812;50.942;3.644;2023-04-03T08:15:03;103036.97;;;7.98;100.00
52949;BME280;38812;50.942;3.644;2023-04-03T08:17:29;103044.59;;;7.88;100.00
52949;BME280;38812;50.942;3.644;2023-04-03T08:19:55;103045.28;;;7.81;100.00
52949;BME280;38812;50.942;3.644;2023-04-03T08:22:20;103019.00;;;8.13;100.00
52949;BME280;38812;50.942;3.644;2023-04-03T08:24:46;103038.66;;;8.32;100.00
52949;BME280;38812;50.942;3.644;2023-04-03T08:27:11;103031.13;;;8.45;100.00
52949;BME280;38812;50.942;3.644;2023-04-03T08:29:37;103031.69;;;9.60;100.00
52949;BME280;38812;50.942;3.644;2023-04-03T08:32:03;103026.47;;;9.61;100.00
52949;BME280;38812;50.942;3.644;2023-04-03T08:34:29;103025.22;;;9.89;100.00
52949;BME280;38812;50.942;3.644;2023-04-03T08:36:55;103023.38;;;10.40;100.00
52949;BME280;38812;50.942;3.644;2023-04-03T08:39:20;103026.97;;;10.46;100.00
52949;BME280;38812;50.942;3.644;2023-04-03T08:41:46;103025.81;;;10.26;100.00
52949;BME280;38812;50.942;3.644;2023-04-03T08:49:35;103026.25;;;9.48;100.00
52949;BME280;38812;50.942;3.644;2023-04-03T08:52:08;103039.97;;;9.35;100.00
52949;BME280;38812;50.942;3.644;2023-04-03T08:54:40;103033.00;;;10.36;100.00
52949;BME280;38812;50.942;3.644;2023-04-03T08:57:11;103022.63;;;10.48;100.00
52949;BME280;38812;50.942;3.644;2023-04-03T08:59:38;103034.84;;;9.41;92.50
52949;BME280;38812;50.942;3.644;2023-04-03T09:02:23;103036.56;;;9.39;95.95
52949;BME280;38812;50.942;3.644;2023-04-03T09:04:51;103036.19;;;9.66;91.29
52949;BME280;38812;50.942;3.644;2023-04-03T09:07:25;103016.19;;;10.26;92.09
52949;BME280;38812;50.942;3.644;2023-04-03T09:10:00;103009.88;;;10.76;96.84
52949;BME280;38812;50.942;3.644;2023-04-03T09:12:33;103024.88;;;10.86;91.29
52949;BME280;38812;50.942;3.644;2023-04-03T09:15:20;103016.25;;;10.96;83.39
52949;BME280;38812;50.942;3.644;2023-04-03T09:23:31;103004.75;;;10.88;81.80
52949;BME280;38812;50.942;3.644;2023-04-03T09:26:35;103005.31;;;10.64;76.77
52949;BME280;38812;50.942;3.644;2023-04-03T09:29:02;103007.06;;;10.63;78.23
52949;BME280;38812;50.942;3.644;2023-04-03T09:31:37;103009.00;;;10.15;77.23
52949;BME280;38812;50.942;3.644;2023-04-03T09:34:08;103017.97;;;9.76;76.26
52949;BME280;38812;50.942;3.644;2023-04-03T09:39:11;103008.00;;;10.67;73.98
52949;BME280;38812;50.942;3.644;2023-04-03T09:41:37;103003.50;;;10.01;70.97
52949;BME280;38812;50.942;3.644;2023-04-03T09:44:04;103015.63;;;9.91;72.98
52949;BME280;38812;50.942;3.644;2023-04-03T09:46:43;103005.31;;;10.04;71.54
52949;BME280;38812;50.942;3.644;2023-04-03T09:49:11;103017.16;;;10.33;70.64
52949;BME280;38812;50.942;3.644;2023-04-03T09:51:37;103015.44;;;9.81;73.13
52949;BME280;38812;50.942;3.644;2023-04-03T09:54:37;103017.06;;;9.73;72.68
52949;BME280;38812;50.942;3.644;2023-04-03T09:57:10;102999.63;;;10.32;72.76
52949;BME280;38812;50.942;3.644;2023-04-03T09:59:59;103010.25;;;10.41;72.49
52949;BME280;38812;50.942;3.644;2023-04-03T10:02:34;102987.66;;;11.25;75.99
52949;BME280;38812;50.942;3.644;2023-04-03T10:04:59;102997.97;;;10.37;70.45
52949;BME280;38812;50.942;3.644;2023-04-03T10:07:36;103001.22;;;10.21;70.83
52949;BME280;38812;50.942;3.644;2023-04-03T10:10:22;102994.00;;;10.70;82.19
52949;BME280;38812;50.942;3.644;2023-04-03T10:13:17;103002.16;;;10.91;72.00
52949;BME280;38812;50.942;3.644;2023-04-03T10:15:55;102994.72;;;11.32;71.78
52949;BME280;38812;50.942;3.644;2023-04-03T10:18:31;102992.88;;;11.26;77.66
52949;BME280;38812;50.942;3.644;2023-04-03T10:21:05;103008.25;;;11.73;70.88
52949;BME280;38812;50.942;3.644;2023-04-03T10:24:09;102991.22;;;11.33;66.89
52949;BME280;38812;50.942;3.644;2023-04-03T10:29:37;102990.50;;;10.71;71.81
52949;BME280;38812;50.942;3.644;2023-04-03T10:34:46;102978.41;;;10.85;67.56
52949;BME280;38812;50.942;3.644;2023-04-03T10:37:25;102982.44;;;10.55;68.58
52949;BME280;38812;50.942;3.644;2023-04-03T10:40:32;102988.31;;;11.04;72.88
52949;BME280;38812;50.942;3.644;2023-04-03T10:46:02;102987.75;;;10.58;70.95
52949;BME280;38812;50.942;3.644;2023-04-03T10:53:39;102968.22;;;10.38;71.29
52949;BME280;38812;50.942;3.644;2023-04-03T11:01:41;102968.47;;;10.59;68.91
52949;BME280;38812;50.942;3.644;2023-04-03T11:04:09;102961.59;;;10.71;68.49
52949;BME280;38812;50.942;3.644;2023-04-03T11:06:44;102973.97;;;10.78;64.62
52949;BME280;38812;50.942;3.644;2023-04-03T11:09:32;102955.00;;;11.09;65.95
52949;BME280;38812;50.942;3.644;2023-04-03T11:12:27;102961.63;;;10.74;65.73
52949;BME280;38812;50.942;3.644;2023-04-03T11:14:55;102954.44;;;11.39;69.58
52949;BME280;38812;50.942;3.644;2023-04-03T11:17:33;102960.38;;;11.18;65.26
52949;BME280;38812;50.942;3.644;2023-04-03T11:20:18;102951.84;;;10.62;63.42
52949;BME280;38812;50.942;3.644;2023-04-03T11:22:50;102947.50;;;10.64;64.40
52949;BME280;38812;50.942;3.644;2023-04-03T11:25:23;102945.16;;;10.90;64.68
52949;BME280;38812;50.942;3.644;2023-04-03T11:27:51;102940.19;;;11.16;66.02
52949;BME280;38812;50.942;3.644;2023-04-03T11:30:38;102931.56;;;10.50;63.25
52949;BME280;38812;50.942;3.644;2023-04-03T11:33:28;102931.06;;;10.82;61.86
52949;BME280;38812;50.942;3.644;2023-04-03T11:36:02;102912.94;;;11.09;63.98
52949;BME280;38812;50.942;3.644;2023-04-03T11:38:36;102917.47;;;11.28;61.02
52949;BME280;38812;50.942;3.644;2023-04-03T11:41:06;102910.22;;;11.00;58.90
52949;BME280;38812;50.942;3.644;2023-04-03T11:43:33;102905.59;;;10.78;58.28
52949;BME280;38812;50.942;3.644;2023-04-03T11:46:06;102892.44;;;10.76;57.97
52949;BME280;38812;50.942;3.644;2023-04-03T11:51:01;102903.22;;;11.02;57.44
52949;BME280;38812;50.942;3.644;2023-04-03T11:53:36;102905.00;;;11.03;54.51
52949;BME280;38812;50.942;3.644;2023-04-03T12:04:11;102890.13;;;11.10;54.87
52949;BME280;38812;50.942;3.644;2023-04-03T12:09:32;102879.47;;;10.93;53.71
52949;BME280;38812;50.942;3.644;2023-04-03T12:12:00;102870.72;;;10.95;54.47
52949;BME280;38812;50.942;3.644;2023-04-03T12:14:27;102880.00;;;10.61;50.71
52949;BME280;38812;50.942;3.644;2023-04-03T12:16:54;102881.13;;;10.85;54.12
52949;BME280;38812;50.942;3.644;2023-04-03T12:19:38;102868.09;;;10.97;51.97
52949;BME280;38812;50.942;3.644;2023-04-03T12:22:14;102875.00;;;10.87;50.37
52949;BME280;38812;50.942;3.644;2023-04-03T12:24:45;102866.59;;;11.22;50.32
52949;BME280;38812;50.942;3.644;2023-04-03T12:27:26;102865.69;;;11.21;53.05
52949;BME280;38812;50.942;3.644;2023-04-03T12:33:17;102869.00;;;10.97;51.50
52949;BME280;38812;50.942;3.644;2023-04-03T12:35:57;102857.94;;;11.40;54.48
52949;BME280;38812;50.942;3.644;2023-04-03T12:38:33;102853.50;;;11.32;54.06
52949;BME280;38812;50.942;3.644;2023-04-03T12:41:37;102859.50;;;11.16;53.47
52949;BME280;38812;50.942;3.644;2023-04-03T12:44:26;102860.75;;;11.64;56.73
52949;BME280;38812;50.942;3.644;2023-04-03T12:47:00;102849.38;;;11.74;55.59
52949;BME280;38812;50.942;3.644;2023-04-03T12:51:54;102858.03;;;11.52;61.00
52949;BME280;38812;50.942;3.644;2023-04-03T12:54:38;102852.09;;;11.79;56.45
52949;BME280;38812;50.942;3.644;2023-04-03T12:57:23;102845.06;;;11.79;56.67
52949;BME280;38812;50.942;3.644;2023-04-03T12:59:49;102848.28;;;11.39;55.03
52949;BME280;38812;50.942;3.644;2023-04-03T13:02:29;102838.72;;;11.53;56.49
52949;BME280;38812;50.942;3.644;2023-04-03T13:05:02;102834.41;;;11.61;55.02
52949;BME280;38812;50.942;3.644;2023-04-03T13:07:33;102828.16;;;11.42;55.02
52949;BME280;38812;50.942;3.644;2023-04-03T13:15:43;102830.66;;;11.24;55.29
52949;BME280;38812;50.942;3.644;2023-04-03T13:18:23;102825.66;;;11.69;59.21
52949;BME280;38812;50.942;3.644;2023-04-03T13:20:49;102825.53;;;11.47;56.48
52949;BME280;38812;50.942;3.644;2023-04-03T13:23:17;102823.41;;;10.97;55.28
52949;BME280;38812;50.942;3.644;2023-04-03T13:25:46;102819.59;;;10.66;55.31
52949;BME280;38812;50.942;3.644;2023-04-03T13:28:16;102826.88;;;10.93;56.46
52949;BME280;38812;50.942;3.644;2023-04-03T13:33:32;102807.66;;;11.00;53.60
52949;BME280;38812;50.942;3.644;2023-04-03T13:36:07;102819.03;;;10.97;54.56
52949;BME280;38812;50.942;3.644;2023-04-03T13:38:34;102824.19;;;10.90;54.03
52949;BME280;38812;50.942;3.644;2023-04-03T13:41:05;102811.19;;;11.07;53.02
52949;BME280;38812;50.942;3.644;2023-04-03T13:43:46;102804.72;;;10.68;50.28
52949;BME280;38812;50.942;3.644;2023-04-03T13:48:38;102815.66;;;11.17;53.05
52949;BME280;38812;50.942;3.644;2023-04-03T13:51:19;102811.13;;;10.96;48.49
52949;BME280;38812;50.942;3.644;2023-04-03T13:53:50;102811.88;;;10.84;47.41
52949;BME280;38812;50.942;3.644;2023-04-03T13:56:22;102819.59;;;10.66;47.68
52949;BME280;38812;50.942;3.644;2023-04-03T13:59:01;102810.84;;;10.69;47.43
52949;BME280;38812;50.942;3.644;2023-04-03T14:01:34;102819.41;;;10.49;48.04